Time;durP1;ratioP1;P1;durP2;ratioP2;P2;SDS_P1;SDS_P2;PMS_P1;PMS_P2;Temp;Humidity;BMP_temperature;BMP_pressure;BME280_temperature;BME280_humidity;BME280_pressure;Samples;Min_cycle;Max_cycle;Signal;HPM_P1;HPM_P2
2021/07/12 00:01:13;;;;;;;1.55;1.00;;;;;;;;;;3565861;40;20446;-65
2021/07/12 00:03:39;;;;;;;1.75;0.70;;;;;;;;;;3565904;40;20410;-65
2021/07/12 00:06:06;;;;;;;0.70;0.68;;;;;;;;;;3563450;40;20404;-65
2021/07/12 00:08:33;;;;;;;2.90;1.13;;;;;;;;;;3565627;40;20433;-65
2021/07/12 00:11:00;;;;;;;0.70;0.70;;;;;;;;;;3565810;40;20392;-65
2021/07/12 00:13:26;;;;;;;1.10;0.80;;;;;;;;;;3566438;40;20384;-65
2021/07/12 00:15:52;;;;;;;1.35;0.70;;;;;;;;;;3567385;40;20382;-65
2021/07/12 00:18:18;;;;;;;1.07;0.87;;;;;;;;;;3567175;40;20394;-65
2021/07/12 00:20:44;;;;;;;1.30;0.70;;;;;;;;;;3567271;40;20802;-65
2021/07/12 00:23:11;;;;;;;1.83;0.77;;;;;;;;;;3567342;40;20841;-65
2021/07/12 00:25:38;;;;;;;0.90;0.70;;;;;;;;;;3567302;40;20791;-65
2021/07/12 00:28:06;;;;;;;3.30;0.80;;;;;;;;;;3569721;40;20512;-65
2021/07/12 00:30:32;;;;;;;2.50;0.85;;;;;;;;;;3567306;40;20382;-65
2021/07/12 00:32:58;;;;;;;0.98;0.77;;;;;;;;;;3572649;40;20376;-65
2021/07/12 00:35:26;;;;;;;1.13;0.60;;;;;;;;;;3563575;40;20710;-65
2021/07/12 00:37:52;;;;;;;2.55;0.80;;;;;;;;;;3563103;40;20394;-65
2021/07/12 00:40:20;;;;;;;1.88;0.70;;;;;;;;;;3567274;40;20405;-65
2021/07/12 00:42:48;;;;;;;1.85;0.85;;;;;;;;;;3567024;40;20369;-65
2021/07/12 00:45:15;;;;;;;2.97;0.73;;;;;;;;;;3567273;40;20393;-65
2021/07/12 00:47:41;;;;;;;1.20;0.80;;;;;;;;;;3567052;40;20374;-65
2021/07/12 00:50:08;;;;;;;1.55;0.80;;;;;;;;;;3567317;40;20767;-65
2021/07/12 00:52:35;;;;;;;1.23;0.70;;;;;;;;;;3567367;40;20381;-66
2021/07/12 00:55:04;;;;;;;1.85;0.80;;;;;;;;;;3566996;40;20388;-65
2021/07/12 00:57:31;;;;;;;1.13;0.65;;;;;;;;;;3566134;40;20397;-65
2021/07/12 00:59:58;;;;;;;2.40;0.70;;;;;;;;;;3566879;40;20370;-65
2021/07/12 01:02:25;;;;;;;1.77;0.67;;;;;;;;;;3550157;40;20413;-65
2021/07/12 01:07:19;;;;;;;1.60;0.68;;;;;;;;;;3557668;40;20716;-72
2021/07/12 01:09:45;;;;;;;2.42;0.70;;;;;;;;;;3569326;40;20402;-73
2021/07/12 01:12:17;;;;;;;2.58;0.70;;;;;;;;;;3561965;40;20493;-71
2021/07/12 01:14:47;;;;;;;0.70;0.70;;;;;;;;;;3550399;40;20396;-72
2021/07/12 01:17:18;;;;;;;0.90;0.73;;;;;;;;;;3550298;40;20357;-72
2021/07/12 01:20:07;;;;;;;1.15;0.80;;;;;;;;;;3549443;40;20369;-73
2021/07/12 01:22:40;;;;;;;1.65;0.70;;;;;;;;;;3556704;40;20421;-73
2021/07/12 01:25:33;;;;;;;3.00;0.70;;;;;;;;;;3562059;40;20376;-73
2021/07/12 01:28:14;;;;;;;1.00;0.60;;;;;;;;;;3549467;40;20353;-73
2021/07/12 01:30:57;;;;;;;1.10;0.60;;;;;;;;;;3558206;40;20454;-73
2021/07/12 01:33:28;;;;;;;1.23;0.80;;;;;;;;;;3559483;40;20352;-73
2021/07/12 01:36:00;;;;;;;1.50;0.80;;;;;;;;;;3559175;40;20383;-72
2021/07/12 01:38:32;;;;;;;1.85;0.70;;;;;;;;;;3553164;40;20816;-71
2021/07/12 01:41:02;;;;;;;0.80;0.70;;;;;;;;;;3547463;40;20499;-73
2021/07/12 01:43:31;;;;;;;1.05;0.70;;;;;;;;;;3547817;40;20708;-73
2021/07/12 01:46:01;;;;;;;2.00;0.80;;;;;;;;;;3546628;40;20806;-72
2021/07/12 01:48:40;;;;;;;1.27;0.60;;;;;;;;;;3523406;40;20409;-72
2021/07/12 01:51:09;;;;;;;1.50;0.65;;;;;;;;;;3536061;40;20445;-73
2021/07/12 01:53:39;;;;;;;2.70;0.70;;;;;;;;;;3533378;40;20416;-72
2021/07/12 01:56:09;;;;;;;1.20;0.63;;;;;;;;;;3530102;40;20437;-72
2021/07/12 01:58:38;;;;;;;1.42;0.70;;;;;;;;;;3538900;40;20395;-72
2021/07/12 02:01:05;;;;;;;2.05;0.70;;;;;;;;;;3540427;40;20403;-72
2021/07/12 02:03:32;;;;;;;1.92;0.70;;;;;;;;;;3529196;40;20592;-72
2021/07/12 02:06:01;;;;;;;1.95;0.90;;;;;;;;;;3528899;40;20412;-72
2021/07/12 02:08:28;;;;;;;2.88;0.80;;;;;;;;;;3528643;40;20384;-72
2021/07/12 02:10:55;;;;;;;0.68;0.60;;;;;;;;;;3528262;40;20419;-72
2021/07/12 02:13:21;;;;;;;2.00;0.80;;;;;;;;;;3531097;40;20366;-73
2021/07/12 02:15:47;;;;;;;3.45;0.90;;;;;;;;;;3539665;40;20361;-73
2021/07/12 02:18:14;;;;;;;2.60;0.70;;;;;;;;;;3546633;40;20414;-72
2021/07/12 02:20:41;;;;;;;1.08;0.70;;;;;;;;;;3539320;40;20481;-71
2021/07/12 02:23:09;;;;;;;1.40;0.60;;;;;;;;;;3538593;40;20689;-72
2021/07/12 02:25:35;;;;;;;1.13;0.73;;;;;;;;;;3539212;40;20645;-72
2021/07/12 02:28:02;;;;;;;1.73;0.70;;;;;;;;;;3539478;40;20399;-72
2021/07/12 02:30:28;;;;;;;1.67;0.80;;;;;;;;;;3530560;40;20384;-73
2021/07/12 02:32:55;;;;;;;0.77;0.63;;;;;;;;;;3530088;40;20357;-73
2021/07/12 02:35:22;;;;;;;1.38;0.80;;;;;;;;;;3533878;40;20370;-72
2021/07/12 02:37:49;;;;;;;1.25;0.63;;;;;;;;;;3536333;40;20379;-71
2021/07/12 02:40:17;;;;;;;1.58;0.73;;;;;;;;;;3535383;40;20772;-72
2021/07/12 02:42:45;;;;;;;2.08;0.80;;;;;;;;;;3529672;40;20432;-73
2021/07/12 02:45:11;;;;;;;1.98;0.80;;;;;;;;;;3529614;40;20435;-73
2021/07/12 02:47:38;;;;;;;1.10;0.70;;;;;;;;;;3533669;40;20374;-75
2021/07/12 02:50:05;;;;;;;1.20;0.77;;;;;;;;;;3534177;40;20380;-75
2021/07/12 02:52:36;;;;;;;1.05;0.85;;;;;;;;;;3524603;40;20818;-73
2021/07/12 02:55:02;;;;;;;1.42;0.77;;;;;;;;;;3544050;40;20394;-74
2021/07/12 02:57:29;;;;;;;1.90;0.75;;;;;;;;;;3537992;40;20410;-73
2021/07/12 02:59:56;;;;;;;1.63;0.80;;;;;;;;;;3538705;40;20385;-74
2021/07/12 03:02:22;;;;;;;1.40;0.80;;;;;;;;;;3540210;40;20358;-75
2021/07/12 03:04:48;;;;;;;2.00;0.90;;;;;;;;;;3544069;40;20829;-74
2021/07/12 03:07:28;;;;;;;2.60;0.73;;;;;;;;;;3545190;40;20412;-74
2021/07/12 03:09:58;;;;;;;0.80;0.70;;;;;;;;;;3540447;40;20399;-75
2021/07/12 03:12:27;;;;;;;3.30;0.60;;;;;;;;;;3538529;40;20436;-75
2021/07/12 03:14:59;;;;;;;1.35;0.60;;;;;;;;;;3549582;40;20348;-75
2021/07/12 03:17:25;;;;;;;1.63;0.60;;;;;;;;;;3550401;40;20372;-75
2021/07/12 03:19:53;;;;;;;0.90;0.80;;;;;;;;;;3557011;40;20370;-74
2021/07/12 03:22:19;;;;;;;1.00;0.70;;;;;;;;;;3530475;40;20421;-75
2021/07/12 03:24:45;;;;;;;1.40;0.80;;;;;;;;;;3552931;40;20433;-74
2021/07/12 03:27:13;;;;;;;0.90;0.77;;;;;;;;;;3559493;40;20364;-74
2021/07/12 03:29:40;;;;;;;2.60;0.70;;;;;;;;;;3549625;40;20371;-74
2021/07/12 03:32:08;;;;;;;1.98;0.70;;;;;;;;;;3555971;40;20415;-75
2021/07/12 03:34:34;;;;;;;1.55;0.70;;;;;;;;;;3555467;40;20380;-74
2021/07/12 03:37:01;;;;;;;2.03;0.90;;;;;;;;;;3554942;40;20368;-74
2021/07/12 03:39:28;;;;;;;1.10;0.80;;;;;;;;;;3545228;40;20382;-74
2021/07/12 03:41:56;;;;;;;1.17;0.77;;;;;;;;;;3549232;40;20418;-74
2021/07/12 03:44:22;;;;;;;2.08;0.80;;;;;;;;;;3549067;40;20399;-74
2021/07/12 03:46:48;;;;;;;1.10;0.70;;;;;;;;;;3553203;40;20814;-74
2021/07/12 03:49:17;;;;;;;1.58;0.80;;;;;;;;;;3549387;40;20371;-73
2021/07/12 03:51:46;;;;;;;1.50;0.80;;;;;;;;;;3550639;40;20381;-75
2021/07/12 03:54:12;;;;;;;1.20;0.70;;;;;;;;;;3550112;40;20743;-75
2021/07/12 03:56:38;;;;;;;1.00;0.80;;;;;;;;;;3550101;40;20523;-74
2021/07/12 03:59:05;;;;;;;1.17;0.90;;;;;;;;;;3540039;40;20402;-74
2021/07/12 04:01:31;;;;;;;3.92;0.85;;;;;;;;;;3549321;40;20773;-75
2021/07/12 04:03:57;;;;;;;1.40;0.73;;;;;;;;;;3550961;40;20427;-75
2021/07/12 04:06:25;;;;;;;2.22;0.80;;;;;;;;;;3558577;40;20895;-74
2021/07/12 04:08:51;;;;;;;1.92;0.80;;;;;;;;;;3546342;40;20427;-75
2021/07/12 04:11:18;;;;;;;1.55;0.70;;;;;;;;;;3548418;40;20761;-75
2021/07/12 04:13:46;;;;;;;0.90;0.70;;;;;;;;;;3550948;40;20361;-75
2021/07/12 04:16:13;;;;;;;1.77;0.70;;;;;;;;;;3553937;40;20388;-74
2021/07/12 04:18:39;;;;;;;0.90;0.63;;;;;;;;;;3545584;40;20356;-74
2021/07/12 04:21:05;;;;;;;2.20;1.13;;;;;;;;;;3553813;40;20382;-74
2021/07/12 04:23:33;;;;;;;2.65;1.40;;;;;;;;;;3548393;40;20405;-74
2021/07/12 04:25:59;;;;;;;2.10;1.20;;;;;;;;;;3554645;40;20373;-75
2021/07/12 04:28:25;;;;;;;2.80;1.20;;;;;;;;;;3543545;40;20367;-74
2021/07/12 04:30:51;;;;;;;1.83;0.90;;;;;;;;;;3552873;40;20719;-74
2021/07/12 04:33:17;;;;;;;1.23;0.80;;;;;;;;;;3555987;40;20369;-75
2021/07/12 04:35:43;;;;;;;1.43;0.80;;;;;;;;;;3553498;40;20350;-74
2021/07/12 04:38:10;;;;;;;2.25;0.80;;;;;;;;;;3553925;40;20353;-75
2021/07/12 04:40:37;;;;;;;1.85;0.82;;;;;;;;;;3553165;40;20361;-75
2021/07/12 04:43:03;;;;;;;1.13;0.60;;;;;;;;;;3553147;40;20366;-75
2021/07/12 04:45:30;;;;;;;0.73;0.60;;;;;;;;;;3553424;40;20350;-74
2021/07/12 04:47:56;;;;;;;1.40;0.80;;;;;;;;;;3557535;40;20368;-76
2021/07/12 04:50:22;;;;;;;1.20;0.70;;;;;;;;;;3561703;40;20439;-76
2021/07/12 04:52:48;;;;;;;1.20;0.70;;;;;;;;;;3553940;40;20455;-76
2021/07/12 04:55:14;;;;;;;0.75;0.70;;;;;;;;;;3563238;40;20364;-75
2021/07/12 04:57:42;;;;;;;1.48;0.80;;;;;;;;;;3555895;40;20665;-76
2021/07/12 05:00:09;;;;;;;1.70;0.68;;;;;;;;;;3562289;40;20354;-76
2021/07/12 05:02:38;;;;;;;1.70;0.80;;;;;;;;;;3556513;40;20372;-74
2021/07/12 05:05:05;;;;;;;2.20;0.73;;;;;;;;;;3546650;40;20507;-74
2021/07/12 05:07:31;;;;;;;1.70;0.93;;;;;;;;;;3545674;40;20389;-74
2021/07/12 05:09:57;;;;;;;1.50;0.70;;;;;;;;;;3541468;40;20762;-75
2021/07/12 05:12:23;;;;;;;1.50;0.93;;;21.00;99.90;;;;;;3547049;40;20884;-75
2021/07/12 05:14:50;;;;;;;1.17;0.65;;;21.20;99.90;;;;;;3541597;40;20472;-75
2021/07/12 05:17:16;;;;;;;3.40;0.88;;;21.30;99.60;;;;;;3551303;40;20748;-74
2021/07/12 05:19:42;;;;;;;1.90;0.73;;;21.30;99.30;;;;;;3554678;40;20415;-75
2021/07/12 05:22:08;;;;;;;1.33;0.65;;;21.50;99.20;;;;;;3548618;40;20400;-74
2021/07/12 05:24:34;;;;;;;1.98;0.60;;;21.50;99.10;;;;;;3548719;40;20809;-74
2021/07/12 05:27:00;;;;;;;1.50;0.90;;;21.60;98.90;;;;;;3543731;40;20411;-73
2021/07/12 05:29:26;;;;;;;2.33;0.70;;;21.70;99.00;;;;;;3541057;40;20421;-73
2021/07/12 05:31:54;;;;;;;1.40;0.60;;;21.70;99.30;;;;;;3548871;40;20412;-74
2021/07/12 05:34:20;;;;;;;1.13;0.70;;;21.70;99.80;;;;;;3550188;40;20373;-75
2021/07/12 05:36:46;;;;;;;0.77;0.60;;;;;;;;;;3551502;40;20361;-74
2021/07/12 05:39:13;;;;;;;1.75;0.80;;;;;;;;;;3557495;40;20368;-75
2021/07/12 05:41:39;;;;;;;1.98;0.90;;;;;;;;;;3562112;40;20371;-75
2021/07/12 05:44:05;;;;;;;1.00;0.70;;;;;;;;;;3555404;40;20381;-74
2021/07/12 05:46:31;;;;;;;2.38;0.75;;;;;;;;;;3541705;40;20667;-74
2021/07/12 05:48:59;;;;;;;1.13;0.77;;;;;;;;;;3544025;40;20630;-74
2021/07/12 05:51:25;;;;;;;1.20;0.60;;;;;;;;;;3547649;40;20383;-75
2021/07/12 05:53:51;;;;;;;1.30;0.63;;;;;;;;;;3550059;40;20365;-76
2021/07/12 05:56:18;;;;;;;1.60;0.60;;;;;;;;;;3557022;40;20403;-74
2021/07/12 05:58:44;;;;;;;0.98;0.70;;;;;;;;;;3548711;40;20361;-75
2021/07/12 06:01:10;;;;;;;0.87;0.80;;;;;;;;;;3554480;40;20427;-74
2021/07/12 06:03:36;;;;;;;0.73;0.67;;;;;;;;;;3555312;40;20407;-77
2021/07/12 06:06:04;;;;;;;2.20;0.68;;;;;;;;;;3558193;40;20371;-74
2021/07/12 06:08:30;;;;;;;2.70;0.70;;;;;;;;;;3539822;40;20384;-74
2021/07/12 06:10:56;;;;;;;2.15;0.80;;;;;;;;;;3546262;40;20426;-74
2021/07/12 06:13:22;;;;;;;1.17;0.60;;;;;;;;;;3534497;40;20504;-74
2021/07/12 06:15:49;;;;;;;2.85;0.80;;;;;;;;;;3530081;40;20448;-75
2021/07/12 06:18:15;;;;;;;2.07;0.70;;;;;;;;;;3537030;40;20668;-75
2021/07/12 06:20:42;;;;;;;0.80;0.60;;;;;;;;;;3546018;40;20469;-74
2021/07/12 06:23:09;;;;;;;1.30;0.73;;;;;;;;;;3548800;40;20366;-74
2021/07/12 06:25:36;;;;;;;1.55;0.68;;;;;;;;;;3546962;40;20680;-73
2021/07/12 06:28:02;;;;;;;2.22;0.80;;;;;;;;;;3546408;40;20770;-74
2021/07/12 06:30:28;;;;;;;3.10;0.90;;;;;;;;;;3551205;40;20411;-74
2021/07/12 06:32:54;;;;;;;1.85;0.77;;;;;;;;;;3543304;40;20375;-74
2021/07/12 06:35:21;;;;;;;1.02;0.88;;;;;;;;;;3548567;40;20385;-75
2021/07/12 06:37:47;;;;;;;2.45;0.85;;;;;;;;;;3552698;40;20483;-74
2021/07/12 06:40:15;;;;;;;2.70;0.75;;;21.70;99.50;;;;;;3541143;40;20436;-73
2021/07/12 06:42:41;;;;;;;1.40;0.90;;;;;;;;;;3553066;40;20415;-73
2021/07/12 06:45:08;;;;;;;3.85;0.70;;;;;;;;;;3553709;40;20379;-73
2021/07/12 06:47:34;;;;;;;3.72;0.80;;;;;;;;;;3548080;40;20408;-75
2021/07/12 06:50:00;;;;;;;2.05;0.88;;;;;;;;;;3552849;40;20346;-76
2021/07/12 06:52:26;;;;;;;1.90;0.70;;;;;;;;;;3549752;40;20409;-75
2021/07/12 06:54:53;;;;;;;1.05;0.80;;;;;;;;;;3551134;40;20428;-76
2021/07/12 06:57:20;;;;;;;1.95;0.70;;;;;;;;;;3549786;40;20409;-72
2021/07/12 06:59:47;;;;;;;2.40;0.70;;;;;;;;;;3551575;40;20391;-74
2021/07/12 07:02:13;;;;;;;0.88;0.60;;;;;;;;;;3544348;40;20380;-75
2021/07/12 07:04:43;;;;;;;1.80;0.70;;;;;;;;;;3551243;40;20391;-74
2021/07/12 07:07:10;;;;;;;2.50;0.70;;;23.20;97.80;;;;;;3551041;40;20441;-75
2021/07/12 07:09:35;;;;;;;1.77;0.82;;;23.90;96.50;;;;;;3539771;40;20399;-72
2021/07/12 07:12:01;;;;;;;1.67;0.82;;;23.90;96.70;;;;;;3553842;40;20688;-74
2021/07/12 07:14:29;;;;;;;2.30;0.90;;;23.70;96.70;;;;;;3548699;40;20429;-75
2021/07/12 07:16:55;;;;;;;3.05;1.25;;;23.70;97.10;;;;;;3546564;40;20510;-75
2021/07/12 07:19:21;;;;;;;1.83;1.00;;;23.60;96.80;;;;;;3548419;40;20452;-74
2021/07/12 07:21:51;;;;;;;2.47;0.85;;;23.70;96.90;;;;;;3550020;40;20387;-74
2021/07/12 07:24:18;;;;;;;3.97;1.10;;;23.70;97.10;;;;;;3550540;40;20402;-74
2021/07/12 07:26:43;;;;;;;1.80;0.73;;;23.70;96.60;;;;;;3540479;40;20465;-74
2021/07/12 07:29:09;;;;;;;1.80;0.65;;;23.70;97.30;;;;;;3552116;40;20399;-75
2021/07/12 07:31:37;;;;;;;1.00;0.80;;;23.70;97.30;;;;;;3550444;40;20757;-75
2021/07/12 07:34:02;;;;;;;1.80;0.80;;;23.70;98.00;;;;;;3534686;40;20412;-74
2021/07/12 07:36:28;;;;;;;2.80;1.15;;;23.70;97.30;;;;;;3539682;40;20704;-74
2021/07/12 07:38:54;;;;;;;1.30;0.60;;;23.70;97.40;;;;;;3549188;40;20376;-74
2021/07/12 07:41:22;;;;;;;1.90;0.80;;;23.80;96.90;;;;;;3548852;40;20428;-74
2021/07/12 07:43:48;;;;;;;0.60;0.50;;;23.90;96.30;;;;;;3556293;40;20390;-74
2021/07/12 07:46:14;;;;;;;1.40;0.70;;;24.00;96.40;;;;;;3544728;40;20373;-75
2021/07/12 07:48:41;;;;;;;2.22;0.70;;;24.00;96.30;;;;;;3549556;40;20809;-74
2021/07/12 07:51:07;;;;;;;1.67;0.83;;;24.00;96.90;;;;;;3548939;40;20817;-74
2021/07/12 07:53:35;;;;;;;1.65;0.60;;;24.00;97.40;;;;;;3555484;40;20370;-73
2021/07/12 07:56:01;;;;;;;1.77;0.70;;;24.00;97.60;;;;;;3542485;40;20397;-74
2021/07/12 07:58:27;;;;;;;1.73;0.98;;;24.00;97.50;;;;;;3541435;40;20386;-74
2021/07/12 08:00:53;;;;;;;1.30;0.80;;;24.00;98.00;;;;;;3552040;40;20427;-74
2021/07/12 08:03:19;;;;;;;1.77;0.70;;;24.00;97.70;;;;;;3555013;40;20385;-74
2021/07/12 08:05:46;;;;;;;1.90;1.00;;;24.00;97.50;;;;;;3542956;40;20403;-73
2021/07/12 08:08:12;;;;;;;2.30;0.80;;;24.00;97.40;;;;;;3550507;40;20763;-74
2021/07/12 08:10:38;;;;;;;1.67;0.70;;;;;;;;;;3552948;40;20506;-73
2021/07/12 08:13:09;;;;;;;1.88;0.60;;;;;;;;;;3556336;40;20527;-74
2021/07/12 08:15:36;;;;;;;1.30;0.80;;;;;;;;;;3537550;40;20398;-74
2021/07/12 08:18:02;;;;;;;2.25;0.88;;;24.00;98.00;;;;;;3541393;40;20428;-74
2021/07/12 08:20:28;;;;;;;1.97;1.00;;;24.20;98.70;;;;;;3537543;40;20832;-74
2021/07/12 08:22:55;;;;;;;1.70;0.70;;;24.20;99.40;;;;;;3529388;40;20414;-74
2021/07/12 08:25:22;;;;;;;1.38;0.70;;;24.30;99.30;;;;;;3528640;40;20384;-74
2021/07/12 08:27:49;;;;;;;0.90;0.70;;;24.20;99.70;;;;;;3536273;40;20487;-74
2021/07/12 08:30:15;;;;;;;1.23;0.63;;;24.20;99.60;;;;;;3538258;40;20399;-75
2021/07/12 08:32:42;;;;;;;1.10;0.70;;;;;;;;;;3538564;40;20394;-74
2021/07/12 08:35:09;;;;;;;1.23;0.70;;;;;;;;;;3537214;40;20847;-74
2021/07/12 08:37:35;;;;;;;1.20;0.77;;;;;;;;;;3537529;40;20398;-75
2021/07/12 08:40:03;;;;;;;3.15;0.75;;;;;;;;;;3537421;40;20375;-74
2021/07/12 08:42:30;;;;;;;1.23;0.60;;;;;;;;;;3537247;40;20450;-74
2021/07/12 08:44:56;;;;;;;2.75;1.08;;;;;;;;;;3545877;40;20384;-73
2021/07/12 08:47:22;;;;;;;9.10;1.17;;;;;;;;;;3547371;40;20385;-74
2021/07/12 08:49:48;;;;;;;2.50;0.95;;;24.30;99.90;;;;;;3537326;40;20465;-74
2021/07/12 08:52:14;;;;;;;1.92;0.90;;;24.30;99.90;;;;;;3545483;40;20487;-73
2021/07/12 08:54:41;;;;;;;2.60;1.13;;;;;;;;;;3548642;40;20362;-74
2021/07/12 08:57:08;;;;;;;1.92;1.00;;;;;;;;;;3549516;40;20503;-75
2021/07/12 08:59:40;;;;;;;2.10;1.08;;;;;;;;;;3548471;40;20373;-74
2021/07/12 09:02:09;;;;;;;3.20;0.98;;;24.40;99.90;;;;;;3536829;40;20410;-74
2021/07/12 09:04:36;;;;;;;3.05;1.00;;;;;;;;;;3528970;40;20685;-74
2021/07/12 09:07:04;;;;;;;1.92;0.90;;;25.10;99.80;;;;;;3538024;40;20379;-74
2021/07/12 09:09:30;;;;;;;2.40;0.85;;;25.40;98.40;;;;;;3524192;40;20420;-73
2021/07/12 09:11:56;;;;;;;2.03;0.80;;;25.60;98.80;;;;;;3541415;40;20385;-75
2021/07/12 09:14:25;;;;;;;1.65;0.73;;;;;;;;;;3546422;40;20432;-74
2021/07/12 09:16:54;;;;;;;1.65;0.90;;;25.80;98.20;;;;;;3538701;40;20394;-74
2021/07/12 09:19:23;;;;;;;1.10;0.87;;;26.00;97.50;;;;;;3540717;40;20426;-74
2021/07/12 09:21:53;;;;;;;3.83;0.80;;;26.00;98.00;;;;;;3536608;40;20407;-74
2021/07/12 09:24:28;;;;;;;1.43;0.60;;;26.00;96.70;;;;;;3532984;40;20785;-74
2021/07/12 09:26:57;;;;;;;1.73;0.63;;;26.20;97.10;;;;;;3539537;40;20387;-74
2021/07/12 09:29:27;;;;;;;2.03;0.80;;;26.50;97.30;;;;;;3537184;40;20481;-74
2021/07/12 09:31:53;;;;;;;0.88;0.60;;;26.80;97.70;;;;;;3536632;40;20563;-74
2021/07/12 09:34:20;;;;;;;1.48;0.68;;;27.00;94.10;;;;;;3538224;40;20390;-74
2021/07/12 09:36:47;;;;;;;1.00;0.50;;;27.10;92.40;;;;;;3544780;40;20399;-73
2021/07/12 09:39:28;;;;;;;0.73;0.40;;;27.20;92.00;;;;;;3550132;40;20376;-74
2021/07/12 09:41:56;;;;;;;1.88;0.50;;;27.20;91.70;;;;;;3533534;40;20778;-73
2021/07/12 09:44:25;;;;;;;1.10;0.57;;;27.40;92.80;;;;;;3537875;40;20898;-74
2021/07/12 09:46:52;;;;;;;4.25;0.88;;;27.60;92.40;;;;;;3530927;40;20417;-74
2021/07/12 09:49:23;;;;;;;1.50;0.60;;;27.90;92.70;;;;;;3531684;40;20379;-74
2021/07/12 09:51:54;;;;;;;1.10;0.70;;;27.80;92.10;;;;;;3540582;40;20392;-74
2021/07/12 09:54:23;;;;;;;0.95;0.70;;;28.00;93.40;;;;;;3545516;40;20395;-73
2021/07/12 09:56:51;;;;;;;2.15;0.70;;;27.90;91.70;;;;;;3540967;40;20395;-74
2021/07/12 09:59:18;;;;;;;1.83;0.60;;;27.80;91.90;;;;;;3537540;40;20399;-74
2021/07/12 10:01:51;;;;;;;2.20;0.70;;;27.60;91.90;;;;;;3539761;40;20905;-73
2021/07/12 10:04:17;;;;;;;0.93;0.60;;;27.50;93.00;;;;;;3524227;40;20778;-73
2021/07/12 10:06:46;;;;;;;1.55;0.73;;;27.80;93.20;;;;;;3537161;40;20420;-74
2021/07/12 10:09:12;;;;;;;1.88;0.60;;;28.20;93.80;;;;;;3545368;40;20413;-74
2021/07/12 10:11:39;;;;;;;1.50;0.70;;;28.70;93.60;;;;;;3540578;40;20389;-74
2021/07/12 10:14:05;;;;;;;2.13;0.65;;;28.80;91.80;;;;;;3530810;40;20410;-74
2021/07/12 10:16:31;;;;;;;1.23;0.68;;;28.70;91.90;;;;;;3526453;40;20677;-74
2021/07/12 10:18:59;;;;;;;1.40;0.70;;;28.80;91.20;;;;;;3532098;40;20670;-74
2021/07/12 10:21:34;;;;;;;2.03;0.73;;;28.90;91.10;;;;;;3540290;40;20422;-74
2021/07/12 10:24:00;;;;;;;1.55;0.70;;;29.00;91.70;;;;;;3529418;40;20381;-74
2021/07/12 10:26:52;;;;;;;1.80;0.70;;;29.10;91.40;;;;;;3530481;40;20460;-74
2021/07/12 10:29:24;;;;;;;1.80;0.80;;;29.10;90.80;;;;;;3535118;40;20397;-75
2021/07/12 10:31:55;;;;;;;1.00;0.50;;;29.30;90.40;;;;;;3531437;40;20403;-73
2021/07/12 10:34:27;;;;;;;0.70;0.60;;;29.30;91.20;;;;;;3537866;40;20411;-74
2021/07/12 10:37:03;;;;;;;1.90;0.80;;;29.30;92.40;;;;;;3537798;40;20383;-73
2021/07/12 10:40:14;;;;;;;1.00;0.70;;;28.90;91.00;;;;;;3535126;40;20380;-74
2021/07/12 10:42:53;;;;;;;1.52;0.75;;;28.80;90.80;;;;;;3535494;40;20390;-73
2021/07/12 10:45:21;;;;;;;1.42;0.60;;;28.80;91.60;;;;;;3533441;40;20789;-74
2021/07/12 10:47:50;;;;;;;1.23;0.68;;;29.00;92.80;;;;;;3528567;40;20454;-74
2021/07/12 10:50:49;;;;;;;1.30;0.50;;;28.90;91.20;;;;;;3537789;40;20376;-74
2021/07/12 10:53:56;;;;;;;1.60;0.80;;;28.90;91.80;;;;;;3531056;40;20947;-74
2021/07/12 10:56:22;;;;;;;2.03;0.77;;;29.00;90.50;;;;;;3533999;40;20382;-74
2021/07/12 10:58:59;;;;;;;1.02;0.70;;;29.10;90.60;;;;;;3531509;40;20648;-74
2021/07/12 11:01:43;;;;;;;2.40;0.80;;;29.30;91.00;;;;;;3517841;40;20441;-73
2021/07/12 11:04:34;;;;;;;1.35;0.90;;;29.30;90.50;;;;;;3536658;40;20452;-74
2021/07/12 11:07:04;;;;;;;1.95;0.60;;;29.40;90.10;;;;;;3509126;40;20404;-74
2021/07/12 11:09:50;;;;;;;3.05;0.68;;;29.60;90.90;;;;;;3508201;40;20393;-74
2021/07/12 11:12:29;;;;;;;1.70;0.63;;;29.60;90.20;;;;;;3501320;40;20435;-74
2021/07/12 11:15:17;;;;;;;3.33;0.60;;;29.40;89.80;;;;;;3507428;40;20512;-75
2021/07/12 11:18:24;;;;;;;2.10;0.70;;;29.40;90.60;;;;;;3520691;40;20781;-74
2021/07/12 11:21:01;;;;;;;2.20;0.50;;;29.50;90.60;;;;;;3505577;40;20436;-75
2021/07/12 11:23:55;;;;;;;1.00;0.60;;;29.70;87.30;;;;;;3524810;40;20474;-74
2021/07/12 11:26:52;;;;;;;0.90;0.60;;;29.80;87.20;;;;;;3536140;40;20371;-74
2021/07/12 11:29:39;;;;;;;0.88;0.57;;;29.60;86.40;;;;;;3536134;40;20407;-74
2021/07/12 11:32:15;;;;;;;0.93;0.60;;;;;;;;;;3537307;40;20401;-74
2021/07/12 11:34:49;;;;;;;1.05;0.50;;;;;;;;;;3528085;40;20435;-74
2021/07/12 11:37:16;;;;;;;0.70;0.50;;;;;;;;;;3537707;40;20370;-74
2021/07/12 11:39:44;;;;;;;0.52;0.52;;;;;;;;;;3541894;40;20365;-74
2021/07/12 11:42:12;;;;;;;1.48;0.60;;;;;;;;;;3539013;40;20424;-75
2021/07/12 11:44:39;;;;;;;1.92;0.70;;;;;;;;;;3534180;40;20436;-75
2021/07/12 11:47:13;;;;;;;1.83;0.50;;;;;;;;;;3540002;40;20375;-74
2021/07/12 11:49:39;;;;;;;1.58;0.60;;;;;;;;;;3530119;40;20780;-74
2021/07/12 11:52:11;;;;;;;1.30;0.50;;;;;;;;;;3528491;40;20754;-74
2021/07/12 11:54:39;;;;;;;1.57;0.50;;;;;;;;;;3536280;40;20377;-75
2021/07/12 11:57:14;;;;;;;1.90;0.60;;;;;;;;;;3537027;40;20375;-74
2021/07/12 11:59:41;;;;;;;1.30;0.50;;;;;;;;;;3539316;40;20499;-74
2021/07/12 12:02:08;;;;;;;1.70;0.70;;;;;;;;;;3535194;40;20479;-75
2021/07/12 12:04:48;;;;;;;0.95;0.50;;;;;;;;;;3536797;40;20657;-75
2021/07/12 12:07:24;;;;;;;0.90;0.50;;;;;;;;;;3533876;40;20378;-73
2021/07/12 12:09:51;;;;;;;0.75;0.60;;;;;;;;;;3536914;40;20390;-75
2021/07/12 12:12:22;;;;;;;0.93;0.50;;;;;;;;;;3538834;40;20781;-74
2021/07/12 12:14:48;;;;;;;2.97;0.70;;;;;;;;;;3538800;40;20438;-75
2021/07/12 12:17:14;;;;;;;1.42;0.50;;;;;;;;;;3534872;40;20373;-74
2021/07/12 12:19:40;;;;;;;1.20;0.60;;;;;;;;;;3541723;40;20460;-75
2021/07/12 12:22:06;;;;;;;1.10;0.55;;;;;;;;;;3552154;40;20397;-75
2021/07/12 12:24:33;;;;;;;1.30;0.50;;;;;;;;;;3544701;40;20452;-75
2021/07/12 12:26:59;;;;;;;3.10;0.60;;;;;;;;;;3540091;40;20406;-75
2021/07/12 12:29:27;;;;;;;1.65;0.60;;;;;;;;;;3546291;40;20503;-74
2021/07/12 12:31:53;;;;;;;2.33;0.52;;;;;;;;;;3547065;40;20405;-74
2021/07/12 12:34:32;;;;;;;1.95;0.50;;;;;;;;;;3546625;40;20675;-74
2021/07/12 12:37:00;;;;;;;0.77;0.60;;;;;;;;;;3549796;40;20370;-74
2021/07/12 12:39:27;;;;;;;0.70;0.50;;;;;;;;;;3533002;40;20662;-75
2021/07/12 12:41:57;;;;;;;2.08;0.70;;;;;;;;;;3548199;40;20389;-75
2021/07/12 12:44:32;;;;;;;0.90;0.50;;;;;;;;;;3549960;40;20363;-75
2021/07/12 12:47:00;;;;;;;1.92;0.60;;;;;;;;;;3547327;40;20822;-75
2021/07/12 12:49:32;;;;;;;1.60;0.63;;;;;;;;;;3549992;40;20387;-75
2021/07/12 12:51:59;;;;;;;0.60;0.50;;;;;;;;;;3540951;40;20393;-74
2021/07/12 12:54:29;;;;;;;3.17;0.60;;;;;;;;;;3548349;40;20400;-74
2021/07/12 12:56:56;;;;;;;1.25;0.60;;;;;;;;;;3548415;40;20377;-75
2021/07/12 12:59:29;;;;;;;1.67;0.60;;;;;;;;;;3542310;40;20435;-75
2021/07/12 13:02:03;;;;;;;1.20;0.60;;;;;;;;;;3532537;40;20871;-75
2021/07/12 13:04:40;;;;;;;2.35;0.68;;;;;;;;;;3537145;40;20411;-76
2021/07/12 13:07:06;;;;;;;2.33;0.53;;;;;;;;;;3532946;40;20398;-75
2021/07/12 13:09:33;;;;;;;1.57;0.57;;;;;;;;;;3520744;40;20746;-75
2021/07/12 13:12:10;;;;;;;1.13;0.70;;;;;;;;;;3540454;40;20382;-75
2021/07/12 13:14:36;;;;;;;1.40;0.90;;;;;;;;;;3540423;40;20375;-75
2021/07/12 13:17:08;;;;;;;1.75;0.88;;;;;;;;;;3535154;40;20512;-74
2021/07/12 13:19:34;;;;;;;0.80;0.70;;;;;;;;;;3528117;40;20412;-75
2021/07/12 13:22:00;;;;;;;2.00;0.70;;;;;;;;;;3533643;40;20427;-75
2021/07/12 13:24:45;;;;;;;3.00;0.80;;;;;;;;;;3532270;40;20787;-75
2021/07/12 13:27:20;;;;;;;2.38;0.90;;;;;;;;;;3501740;40;20447;-74
2021/07/12 13:29:46;;;;;;;1.50;0.60;;;;;;;;;;3507999;41;20415;-75
2021/07/12 13:32:14;;;;;;;1.75;0.60;;;;;;;;;;3512120;40;20530;-75
2021/07/12 13:34:48;;;;;;;0.95;0.70;;;;;;;;;;3517938;40;20370;-74
2021/07/12 13:37:14;;;;;;;2.38;0.70;;;;;;;;;;3511492;40;20399;-74
2021/07/12 13:39:41;;;;;;;2.08;0.60;;;;;;;;;;3509160;40;20413;-74
2021/07/12 13:42:08;;;;;;;1.00;0.60;;;;;;;;;;3515545;40;20420;-75
2021/07/12 13:44:34;;;;;;;0.70;0.55;;;;;;;;;;3511766;40;20417;-75
2021/07/12 13:47:00;;;;;;;2.15;0.80;;;;;;;;;;3517365;40;20485;-75
2021/07/12 13:49:27;;;;;;;2.05;0.65;;;;;;;;;;3521740;40;20663;-75
2021/07/12 13:51:54;;;;;;;1.80;0.57;;;;;;;;;;3517638;40;20406;-75
2021/07/12 13:54:20;;;;;;;3.28;0.60;;;;;;;;;;3522941;40;20700;-75
2021/07/12 13:56:46;;;;;;;1.30;0.65;;;;;;;;;;3510301;40;20808;-75
2021/07/12 13:59:12;;;;;;;2.08;0.57;;;;;;;;;;3545392;40;20445;-75
2021/07/12 14:01:38;;;;;;;1.52;0.70;;;;;;;;;;3549355;40;20373;-74
2021/07/12 14:04:05;;;;;;;1.55;0.80;;;;;;;;;;3548948;40;20388;-74
2021/07/12 14:06:32;;;;;;;1.20;0.98;;;;;;;;;;3547160;40;20433;-74
2021/07/12 14:08:59;;;;;;;2.95;0.77;;;;;;;;;;3553233;40;20376;-74
2021/07/12 14:11:26;;;;;;;1.30;0.70;;;;;;;;;;3548677;40;20373;-74
2021/07/12 14:13:52;;;;;;;1.08;0.70;;;;;;;;;;3545174;40;20465;-75
2021/07/12 14:16:23;;;;;;;2.30;0.70;;;;;;;;;;3542228;40;20413;-74
2021/07/12 14:18:50;;;;;;;1.35;0.60;;;;;;;;;;3540837;40;20377;-75